East Prairie, Missouri
Current Conditions -  °F | °C
As of 10:15 AM on Thursday 18 Dec 2014 (Local Time) from KCIR Reporting Station
Haze Haze  
Wind Chill: 30°   Ceiling: 500
Heat Index: 36°   Visibility: 4mi
Dew Point: 36°   Wind: 7mph
Humidity: 99%   Direction: 80°E
Pressure: 30.3"   Gusts: NA
Location:  36.78°N, 89.39°W
Report Text: KCIR 181615Z AUTO 08006KT 4SM BR OVC005 02/02 A3030 RMK AO2 T00210020
Loading
Personal Weather Stations






























Interactive Weather Map New forecast layout! Learn more

10-Day Weather Forecast

Advertisements
Track Severe Weather on mobile